sensor_id;sensor_type;location;lat;lon;timestamp;P1;durP1;ratioP1;P2;durP2;ratioP2
24873;SDS011;12945;42.648;23.370;2022-10-31T00:00:28;10.57;;;4.93;;
24873;SDS011;12945;42.648;23.370;2022-10-31T00:02:53;10.88;;;4.55;;
24873;SDS011;12945;42.648;23.370;2022-10-31T00:05:18;8.05;;;4.25;;
24873;SDS011;12945;42.648;23.370;2022-10-31T00:07:44;9.15;;;4.03;;
24873;SDS011;12945;42.648;23.370;2022-10-31T00:10:09;9.25;;;4.88;;
24873;SDS011;12945;42.648;23.370;2022-10-31T00:12:34;11.82;;;4.28;;
24873;SDS011;12945;42.648;23.370;2022-10-31T00:14:59;11.38;;;5.10;;
24873;SDS011;12945;42.648;23.370;2022-10-31T00:17:24;8.43;;;4.53;;
24873;SDS011;12945;42.648;23.370;2022-10-31T00:19:50;7.93;;;4.07;;
24873;SDS011;12945;42.648;23.370;2022-10-31T00:22:15;11.35;;;4.68;;
24873;SDS011;12945;42.648;23.370;2022-10-31T00:24:40;7.95;;;4.38;;
24873;SDS011;12945;42.648;23.370;2022-10-31T00:27:06;8.75;;;4.10;;
24873;SDS011;12945;42.648;23.370;2022-10-31T00:29:31;12.73;;;4.45;;
24873;SDS011;12945;42.648;23.370;2022-10-31T00:31:56;9.65;;;4.47;;
24873;SDS011;12945;42.648;23.370;2022-10-31T00:34:21;9.52;;;4.38;;
24873;SDS011;12945;42.648;23.370;2022-10-31T00:36:47;11.07;;;4.35;;
24873;SDS011;12945;42.648;23.370;2022-10-31T00:39:12;9.90;;;4.53;;
24873;SDS011;12945;42.648;23.370;2022-10-31T00:41:37;16.90;;;4.70;;
24873;SDS011;12945;42.648;23.370;2022-10-31T00:44:03;10.00;;;4.32;;
24873;SDS011;12945;42.648;23.370;2022-10-31T00:46:28;12.10;;;5.45;;
24873;SDS011;12945;42.648;23.370;2022-10-31T00:48:53;12.38;;;4.60;;
24873;SDS011;12945;42.648;23.370;2022-10-31T00:51:19;11.68;;;4.57;;
24873;SDS011;12945;42.648;23.370;2022-10-31T00:53:44;8.30;;;4.53;;
24873;SDS011;12945;42.648;23.370;2022-10-31T00:56:09;8.82;;;4.40;;
24873;SDS011;12945;42.648;23.370;2022-10-31T00:58:34;10.48;;;4.25;;
24873;SDS011;12945;42.648;23.370;2022-10-31T01:00:59;11.43;;;4.68;;
24873;SDS011;12945;42.648;23.370;2022-10-31T01:03:26;10.05;;;4.60;;
24873;SDS011;12945;42.648;23.370;2022-10-31T01:05:58;9.05;;;4.05;;
24873;SDS011;12945;42.648;23.370;2022-10-31T01:08:24;11.00;;;5.40;;
24873;SDS011;12945;42.648;23.370;2022-10-31T01:10:59;11.82;;;4.40;;
24873;SDS011;12945;42.648;23.370;2022-10-31T01:13:24;8.00;;;4.10;;
24873;SDS011;12945;42.648;23.370;2022-10-31T01:15:54;9.02;;;4.45;;
24873;SDS011;12945;42.648;23.370;2022-10-31T01:18:19;9.80;;;4.78;;
24873;SDS011;12945;42.648;23.370;2022-10-31T01:20:44;11.30;;;4.70;;
24873;SDS011;12945;42.648;23.370;2022-10-31T01:23:10;10.05;;;5.30;;
24873;SDS011;12945;42.648;23.370;2022-10-31T01:25:35;12.93;;;4.85;;
24873;SDS011;12945;42.648;23.370;2022-10-31T01:28:00;10.00;;;4.78;;
24873;SDS011;12945;42.648;23.370;2022-10-31T01:30:25;10.55;;;4.90;;
24873;SDS011;12945;42.648;23.370;2022-10-31T01:32:51;11.00;;;4.50;;
24873;SDS011;12945;42.648;23.370;2022-10-31T01:35:16;12.15;;;4.78;;
24873;SDS011;12945;42.648;23.370;2022-10-31T01:37:41;9.15;;;4.40;;
24873;SDS011;12945;42.648;23.370;2022-10-31T01:40:07;11.68;;;4.88;;
24873;SDS011;12945;42.648;23.370;2022-10-31T01:42:32;11.73;;;5.20;;
24873;SDS011;12945;42.648;23.370;2022-10-31T01:44:59;12.48;;;5.53;;
24873;SDS011;12945;42.648;23.370;2022-10-31T01:47:27;13.35;;;5.30;;
24873;SDS011;12945;42.648;23.370;2022-10-31T01:49:56;13.30;;;5.53;;
24873;SDS011;12945;42.648;23.370;2022-10-31T01:52:41;19.02;;;5.93;;
24873;SDS011;12945;42.648;23.370;2022-10-31T01:57:48;13.52;;;6.45;;
24873;SDS011;12945;42.648;23.370;2022-10-31T02:00:16;12.15;;;6.25;;
24873;SDS011;12945;42.648;23.370;2022-10-31T02:02:41;15.20;;;6.00;;
24873;SDS011;12945;42.648;23.370;2022-10-31T02:05:11;13.52;;;6.15;;
24873;SDS011;12945;42.648;23.370;2022-10-31T02:07:42;12.23;;;5.88;;
24873;SDS011;12945;42.648;23.370;2022-10-31T02:10:09;13.95;;;5.93;;
24873;SDS011;12945;42.648;23.370;2022-10-31T02:12:34;13.00;;;6.05;;
24873;SDS011;12945;42.648;23.370;2022-10-31T02:15:01;13.93;;;6.15;;
24873;SDS011;12945;42.648;23.370;2022-10-31T02:17:26;11.25;;;6.20;;
24873;SDS011;12945;42.648;23.370;2022-10-31T02:19:56;12.30;;;5.65;;
24873;SDS011;12945;42.648;23.370;2022-10-31T02:40:59;14.85;;;6.07;;
24873;SDS011;12945;42.648;23.370;2022-10-31T02:43:27;14.07;;;6.00;;
24873;SDS011;12945;42.648;23.370;2022-10-31T02:45:58;21.70;;;6.95;;
24873;SDS011;12945;42.648;23.370;2022-10-31T02:48:28;13.40;;;6.00;;
24873;SDS011;12945;42.648;23.370;2022-10-31T02:50:59;15.40;;;6.93;;
24873;SDS011;12945;42.648;23.370;2022-10-31T02:53:25;20.30;;;6.20;;
24873;SDS011;12945;42.648;23.370;2022-10-31T02:55:56;17.35;;;6.38;;
24873;SDS011;12945;42.648;23.370;2022-10-31T02:58:23;18.42;;;8.35;;
24873;SDS011;12945;42.648;23.370;2022-10-31T03:03:49;15.00;;;6.75;;
24873;SDS011;12945;42.648;23.370;2022-10-31T03:06:41;22.42;;;7.70;;
24873;SDS011;12945;42.648;23.370;2022-10-31T03:11:35;18.15;;;8.15;;
24873;SDS011;12945;42.648;23.370;2022-10-31T03:15:10;17.92;;;7.82;;
24873;SDS011;12945;42.648;23.370;2022-10-31T03:16:59;18.63;;;7.50;;
24873;SDS011;12945;42.648;23.370;2022-10-31T03:19:28;16.42;;;6.82;;
24873;SDS011;12945;42.648;23.370;2022-10-31T03:22:00;12.75;;;7.00;;
24873;SDS011;12945;42.648;23.370;2022-10-31T03:24:27;15.30;;;7.18;;
24873;SDS011;12945;42.648;23.370;2022-10-31T03:26:55;16.48;;;6.95;;
24873;SDS011;12945;42.648;23.370;2022-10-31T03:29:22;16.27;;;7.00;;
24873;SDS011;12945;42.648;23.370;2022-10-31T03:31:51;18.27;;;7.22;;
24873;SDS011;12945;42.648;23.370;2022-10-31T03:34:18;18.40;;;7.55;;
24873;SDS011;12945;42.648;23.370;2022-10-31T03:36:44;14.55;;;7.95;;
24873;SDS011;12945;42.648;23.370;2022-10-31T03:39:11;19.38;;;7.03;;
24873;SDS011;12945;42.648;23.370;2022-10-31T03:41:38;17.10;;;7.00;;
24873;SDS011;12945;42.648;23.370;2022-10-31T03:44:07;20.98;;;7.43;;
24873;SDS011;12945;42.648;23.370;2022-10-31T03:46:33;16.63;;;7.50;;
24873;SDS011;12945;42.648;23.370;2022-10-31T03:48:59;14.98;;;7.10;;
24873;SDS011;12945;42.648;23.370;2022-10-31T03:53:54;13.82;;;6.70;;
24873;SDS011;12945;42.648;23.370;2022-10-31T03:58:52;18.10;;;7.10;;
24873;SDS011;12945;42.648;23.370;2022-10-31T04:01:20;18.52;;;6.82;;
24873;SDS011;12945;42.648;23.370;2022-10-31T04:03:46;17.38;;;7.75;;
24873;SDS011;12945;42.648;23.370;2022-10-31T04:06:13;17.75;;;7.43;;
24873;SDS011;12945;42.648;23.370;2022-10-31T04:08:45;18.33;;;7.63;;
24873;SDS011;12945;42.648;23.370;2022-10-31T04:11:13;15.02;;;7.07;;
24873;SDS011;12945;42.648;23.370;2022-10-31T04:13:41;18.67;;;8.82;;
24873;SDS011;12945;42.648;23.370;2022-10-31T04:16:09;15.45;;;7.60;;
24873;SDS011;12945;42.648;23.370;2022-10-31T04:18:35;14.25;;;7.72;;
24873;SDS011;12945;42.648;23.370;2022-10-31T04:21:01;16.50;;;8.18;;
24873;SDS011;12945;42.648;23.370;2022-10-31T04:23:27;16.98;;;7.75;;
24873;SDS011;12945;42.648;23.370;2022-10-31T04:25:53;16.13;;;7.85;;
24873;SDS011;12945;42.648;23.370;2022-10-31T04:28:18;18.80;;;8.25;;
24873;SDS011;12945;42.648;23.370;2022-10-31T04:30:43;16.85;;;8.82;;
24873;SDS011;12945;42.648;23.370;2022-10-31T04:33:09;19.27;;;8.63;;
24873;SDS011;12945;42.648;23.370;2022-10-31T04:35:34;14.55;;;7.82;;
24873;SDS011;12945;42.648;23.370;2022-10-31T04:37:59;18.63;;;8.00;;
24873;SDS011;12945;42.648;23.370;2022-10-31T04:40:25;18.20;;;8.75;;
24873;SDS011;12945;42.648;23.370;2022-10-31T04:42:50;15.40;;;7.68;;
24873;SDS011;12945;42.648;23.370;2022-10-31T04:45:15;17.02;;;8.20;;
24873;SDS011;12945;42.648;23.370;2022-10-31T04:47:40;15.15;;;8.75;;
24873;SDS011;12945;42.648;23.370;2022-10-31T04:50:06;16.80;;;7.90;;
24873;SDS011;12945;42.648;23.370;2022-10-31T04:52:31;15.88;;;8.65;;
24873;SDS011;12945;42.648;23.370;2022-10-31T04:54:57;18.27;;;8.35;;
24873;SDS011;12945;42.648;23.370;2022-10-31T04:57:22;16.02;;;8.23;;
24873;SDS011;12945;42.648;23.370;2022-10-31T04:59:47;14.85;;;8.77;;
24873;SDS011;12945;42.648;23.370;2022-10-31T05:02:12;21.27;;;8.82;;
24873;SDS011;12945;42.648;23.370;2022-10-31T05:04:38;26.05;;;9.13;;
24873;SDS011;12945;42.648;23.370;2022-10-31T05:07:03;23.45;;;9.20;;
24873;SDS011;12945;42.648;23.370;2022-10-31T05:09:28;21.13;;;8.55;;
24873;SDS011;12945;42.648;23.370;2022-10-31T05:11:54;17.48;;;9.00;;
24873;SDS011;12945;42.648;23.370;2022-10-31T05:14:19;23.13;;;9.75;;
24873;SDS011;12945;42.648;23.370;2022-10-31T05:16:44;22.15;;;9.50;;
24873;SDS011;12945;42.648;23.370;2022-10-31T05:19:09;18.15;;;9.02;;
24873;SDS011;12945;42.648;23.370;2022-10-31T05:21:35;24.35;;;11.13;;
24873;SDS011;12945;42.648;23.370;2022-10-31T05:24:00;17.55;;;9.48;;
24873;SDS011;12945;42.648;23.370;2022-10-31T05:26:25;19.55;;;10.40;;
24873;SDS011;12945;42.648;23.370;2022-10-31T05:28:50;20.40;;;10.05;;
24873;SDS011;12945;42.648;23.370;2022-10-31T05:31:16;24.92;;;9.90;;
24873;SDS011;12945;42.648;23.370;2022-10-31T05:33:41;26.58;;;10.68;;
24873;SDS011;12945;42.648;23.370;2022-10-31T05:36:06;24.80;;;9.43;;
24873;SDS011;12945;42.648;23.370;2022-10-31T05:38:32;30.83;;;10.40;;
24873;SDS011;12945;42.648;23.370;2022-10-31T05:40:57;21.67;;;10.07;;
24873;SDS011;12945;42.648;23.370;2022-10-31T05:43:24;18.52;;;10.15;;
24873;SDS011;12945;42.648;23.370;2022-10-31T05:45:53;19.30;;;10.63;;
24873;SDS011;12945;42.648;23.370;2022-10-31T05:48:18;22.95;;;10.95;;
24873;SDS011;12945;42.648;23.370;2022-10-31T05:50:44;19.92;;;10.95;;
24873;SDS011;12945;42.648;23.370;2022-10-31T05:53:09;28.42;;;10.55;;
24873;SDS011;12945;42.648;23.370;2022-10-31T05:55:34;22.98;;;11.30;;
24873;SDS011;12945;42.648;23.370;2022-10-31T05:58:00;25.70;;;10.73;;
24873;SDS011;12945;42.648;23.370;2022-10-31T06:00:25;20.52;;;9.45;;
24873;SDS011;12945;42.648;23.370;2022-10-31T06:02:57;31.63;;;9.48;;
24873;SDS011;12945;42.648;23.370;2022-10-31T06:05:23;26.52;;;9.43;;
24873;SDS011;12945;42.648;23.370;2022-10-31T06:07:48;25.35;;;11.85;;
24873;SDS011;12945;42.648;23.370;2022-10-31T06:10:13;33.92;;;12.88;;
24873;SDS011;12945;42.648;23.370;2022-10-31T06:12:39;28.98;;;13.13;;
24873;SDS011;12945;42.648;23.370;2022-10-31T06:15:06;38.28;;;13.20;;
24873;SDS011;12945;42.648;23.370;2022-10-31T06:17:32;35.95;;;15.73;;
24873;SDS011;12945;42.648;23.370;2022-10-31T06:19:58;27.98;;;15.07;;
24873;SDS011;12945;42.648;23.370;2022-10-31T06:22:23;43.55;;;14.93;;
24873;SDS011;12945;42.648;23.370;2022-10-31T06:24:49;26.88;;;12.88;;
24873;SDS011;12945;42.648;23.370;2022-10-31T06:27:14;38.60;;;13.02;;
24873;SDS011;12945;42.648;23.370;2022-10-31T06:29:39;34.65;;;12.40;;
24873;SDS011;12945;42.648;23.370;2022-10-31T06:32:04;34.40;;;12.98;;
24873;SDS011;12945;42.648;23.370;2022-10-31T06:34:30;31.92;;;13.63;;
24873;SDS011;12945;42.648;23.370;2022-10-31T06:36:55;29.55;;;12.52;;
24873;SDS011;12945;42.648;23.370;2022-10-31T06:39:20;30.00;;;13.90;;
24873;SDS011;12945;42.648;23.370;2022-10-31T06:41:47;27.35;;;14.80;;
24873;SDS011;12945;42.648;23.370;2022-10-31T06:44:12;26.23;;;13.38;;
24873;SDS011;12945;42.648;23.370;2022-10-31T06:46:37;24.67;;;13.40;;
24873;SDS011;12945;42.648;23.370;2022-10-31T06:49:03;26.15;;;13.77;;
24873;SDS011;12945;42.648;23.370;2022-10-31T06:51:28;29.40;;;14.23;;
24873;SDS011;12945;42.648;23.370;2022-10-31T06:53:53;29.42;;;13.60;;
24873;SDS011;12945;42.648;23.370;2022-10-31T06:56:18;24.77;;;13.75;;
24873;SDS011;12945;42.648;23.370;2022-10-31T06:58:44;27.83;;;13.82;;
24873;SDS011;12945;42.648;23.370;2022-10-31T07:01:09;27.88;;;14.07;;
24873;SDS011;12945;42.648;23.370;2022-10-31T07:03:34;36.72;;;15.48;;
24873;SDS011;12945;42.648;23.370;2022-10-31T07:06:00;27.70;;;14.02;;
24873;SDS011;12945;42.648;23.370;2022-10-31T07:08:25;35.58;;;15.32;;
24873;SDS011;12945;42.648;23.370;2022-10-31T07:10:52;41.15;;;14.95;;
24873;SDS011;12945;42.648;23.370;2022-10-31T07:13:18;43.10;;;14.55;;
24873;SDS011;12945;42.648;23.370;2022-10-31T07:15:46;28.48;;;14.40;;
24873;SDS011;12945;42.648;23.370;2022-10-31T07:18:12;27.83;;;14.85;;
24873;SDS011;12945;42.648;23.370;2022-10-31T07:20:37;28.67;;;14.95;;
24873;SDS011;12945;42.648;23.370;2022-10-31T07:23:02;33.25;;;15.27;;
24873;SDS011;12945;42.648;23.370;2022-10-31T07:25:28;27.25;;;15.20;;
24873;SDS011;12945;42.648;23.370;2022-10-31T07:27:53;27.67;;;14.50;;
24873;SDS011;12945;42.648;23.370;2022-10-31T07:30:18;29.42;;;15.68;;
24873;SDS011;12945;42.648;23.370;2022-10-31T07:32:45;28.95;;;15.30;;
24873;SDS011;12945;42.648;23.370;2022-10-31T07:35:12;27.42;;;14.68;;
24873;SDS011;12945;42.648;23.370;2022-10-31T07:37:37;24.00;;;14.70;;
24873;SDS011;12945;42.648;23.370;2022-10-31T07:40:03;29.13;;;14.15;;
24873;SDS011;12945;42.648;23.370;2022-10-31T07:42:29;26.63;;;14.48;;
24873;SDS011;12945;42.648;23.370;2022-10-31T07:44:54;34.72;;;14.57;;
24873;SDS011;12945;42.648;23.370;2022-10-31T07:47:19;33.97;;;17.40;;
24873;SDS011;12945;42.648;23.370;2022-10-31T07:49:45;46.85;;;20.10;;
24873;SDS011;12945;42.648;23.370;2022-10-31T07:52:10;31.73;;;16.42;;
24873;SDS011;12945;42.648;23.370;2022-10-31T07:54:35;31.63;;;15.68;;
24873;SDS011;12945;42.648;23.370;2022-10-31T07:57:01;29.80;;;15.65;;
24873;SDS011;12945;42.648;23.370;2022-10-31T07:59:26;39.88;;;16.00;;
24873;SDS011;12945;42.648;23.370;2022-10-31T08:01:52;31.20;;;15.95;;
24873;SDS011;12945;42.648;23.370;2022-10-31T08:04:17;32.10;;;15.70;;
24873;SDS011;12945;42.648;23.370;2022-10-31T08:06:42;30.27;;;15.43;;
24873;SDS011;12945;42.648;23.370;2022-10-31T08:09:08;27.42;;;14.93;;
24873;SDS011;12945;42.648;23.370;2022-10-31T08:11:33;26.33;;;14.45;;
24873;SDS011;12945;42.648;23.370;2022-10-31T08:13:58;28.25;;;15.10;;
24873;SDS011;12945;42.648;23.370;2022-10-31T08:16:23;28.13;;;14.77;;
24873;SDS011;12945;42.648;23.370;2022-10-31T08:18:49;26.52;;;14.80;;
24873;SDS011;12945;42.648;23.370;2022-10-31T08:21:14;24.73;;;15.43;;
24873;SDS011;12945;42.648;23.370;2022-10-31T08:23:39;21.33;;;14.52;;
24873;SDS011;12945;42.648;23.370;2022-10-31T08:26:04;25.08;;;16.08;;
24873;SDS011;12945;42.648;23.370;2022-10-31T08:28:31;23.23;;;14.63;;
24873;SDS011;12945;42.648;23.370;2022-10-31T08:30:57;28.00;;;15.63;;
24873;SDS011;12945;42.648;23.370;2022-10-31T08:33:22;29.13;;;15.50;;
24873;SDS011;12945;42.648;23.370;2022-10-31T08:35:47;34.10;;;15.73;;
24873;SDS011;12945;42.648;23.370;2022-10-31T08:38:13;23.00;;;15.15;;
24873;SDS011;12945;42.648;23.370;2022-10-31T08:40:39;27.77;;;16.00;;
24873;SDS011;12945;42.648;23.370;2022-10-31T08:43:05;23.58;;;15.63;;
24873;SDS011;12945;42.648;23.370;2022-10-31T08:45:32;23.65;;;14.75;;
24873;SDS011;12945;42.648;23.370;2022-10-31T08:47:58;25.35;;;13.98;;
24873;SDS011;12945;42.648;23.370;2022-10-31T08:50:23;29.55;;;15.07;;
24873;SDS011;12945;42.648;23.370;2022-10-31T08:52:49;23.17;;;13.52;;
24873;SDS011;12945;42.648;23.370;2022-10-31T08:55:14;24.23;;;14.02;;
24873;SDS011;12945;42.648;23.370;2022-10-31T08:57:39;38.58;;;18.90;;
24873;SDS011;12945;42.648;23.370;2022-10-31T09:00:05;27.30;;;14.95;;
24873;SDS011;12945;42.648;23.370;2022-10-31T09:02:30;23.70;;;14.00;;
24873;SDS011;12945;42.648;23.370;2022-10-31T09:04:55;24.83;;;13.48;;
24873;SDS011;12945;42.648;23.370;2022-10-31T09:07:21;28.00;;;13.05;;
24873;SDS011;12945;42.648;23.370;2022-10-31T09:09:46;32.28;;;12.45;;
24873;SDS011;12945;42.648;23.370;2022-10-31T09:12:11;27.15;;;12.95;;
24873;SDS011;12945;42.648;23.370;2022-10-31T09:14:37;23.92;;;11.90;;
24873;SDS011;12945;42.648;23.370;2022-10-31T09:17:02;21.70;;;11.10;;
24873;SDS011;12945;42.648;23.370;2022-10-31T09:19:27;22.48;;;11.95;;
24873;SDS011;12945;42.648;23.370;2022-10-31T09:21:53;22.45;;;11.55;;
24873;SDS011;12945;42.648;23.370;2022-10-31T09:24:19;22.95;;;11.63;;
24873;SDS011;12945;42.648;23.370;2022-10-31T09:26:44;29.83;;;12.18;;
24873;SDS011;12945;42.648;23.370;2022-10-31T09:29:09;25.85;;;10.77;;
24873;SDS011;12945;42.648;23.370;2022-10-31T09:31:35;27.42;;;11.73;;
24873;SDS011;12945;42.648;23.370;2022-10-31T09:34:00;25.05;;;11.13;;
24873;SDS011;12945;42.648;23.370;2022-10-31T09:36:25;21.00;;;11.68;;
24873;SDS011;12945;42.648;23.370;2022-10-31T09:38:51;22.38;;;10.70;;
24873;SDS011;12945;42.648;23.370;2022-10-31T09:44:08;17.35;;;10.20;;
24873;SDS011;12945;42.648;23.370;2022-10-31T09:46:58;23.30;;;10.85;;
24873;SDS011;12945;42.648;23.370;2022-10-31T09:56:59;22.15;;;9.88;;
24873;SDS011;12945;42.648;23.370;2022-10-31T09:59:35;20.90;;;11.20;;
24873;SDS011;12945;42.648;23.370;2022-10-31T10:02:03;19.08;;;10.80;;
24873;SDS011;12945;42.648;23.370;2022-10-31T10:07:19;24.75;;;10.82;;
24873;SDS011;12945;42.648;23.370;2022-10-31T10:09:46;22.73;;;9.32;;
24873;SDS011;12945;42.648;23.370;2022-10-31T10:14:56;17.65;;;8.50;;
24873;SDS011;12945;42.648;23.370;2022-10-31T10:20:31;18.38;;;8.18;;
24873;SDS011;12945;42.648;23.370;2022-10-31T10:22:54;12.10;;;6.57;;
24873;SDS011;12945;42.648;23.370;2022-10-31T10:32:59;13.82;;;5.65;;
24873;SDS011;12945;42.648;23.370;2022-10-31T10:37:52;9.33;;;4.93;;
24873;SDS011;12945;42.648;23.370;2022-10-31T10:40:19;13.32;;;5.72;;
24873;SDS011;12945;42.648;23.370;2022-10-31T10:46:32;13.00;;;5.15;;
24873;SDS011;12945;42.648;23.370;2022-10-31T10:51:20;8.60;;;3.60;;
24873;SDS011;12945;42.648;23.370;2022-10-31T10:58:54;10.57;;;3.53;;
24873;SDS011;12945;42.648;23.370;2022-10-31T11:01:21;16.23;;;4.78;;
24873;SDS011;12945;42.648;23.370;2022-10-31T11:03:47;9.05;;;3.90;;
24873;SDS011;12945;42.648;23.370;2022-10-31T11:06:18;14.07;;;3.60;;
24873;SDS011;12945;42.648;23.370;2022-10-31T11:08:51;11.63;;;4.10;;
24873;SDS011;12945;42.648;23.370;2022-10-31T11:13:42;15.13;;;4.10;;
24873;SDS011;12945;42.648;23.370;2022-10-31T11:16:28;11.02;;;4.28;;
24873;SDS011;12945;42.648;23.370;2022-10-31T11:18:54;12.52;;;3.85;;
24873;SDS011;12945;42.648;23.370;2022-10-31T11:21:30;14.25;;;3.35;;
24873;SDS011;12945;42.648;23.370;2022-10-31T11:26:32;12.45;;;4.00;;
24873;SDS011;12945;42.648;23.370;2022-10-31T11:29:00;9.00;;;3.47;;
24873;SDS011;12945;42.648;23.370;2022-10-31T11:31:27;9.80;;;3.60;;
24873;SDS011;12945;42.648;23.370;2022-10-31T11:34:00;18.85;;;3.90;;
24873;SDS011;12945;42.648;23.370;2022-10-31T11:36:30;14.98;;;4.00;;
24873;SDS011;12945;42.648;23.370;2022-10-31T11:38:56;8.60;;;3.60;;
24873;SDS011;12945;42.648;23.370;2022-10-31T11:41:33;8.60;;;3.47;;
24873;SDS011;12945;42.648;23.370;2022-10-31T11:44:01;22.15;;;3.55;;
24873;SDS011;12945;42.648;23.370;2022-10-31T11:46:30;9.57;;;4.05;;
24873;SDS011;12945;42.648;23.370;2022-10-31T11:48:58;9.32;;;3.83;;
24873;SDS011;12945;42.648;23.370;2022-10-31T11:51:24;10.23;;;3.30;;
24873;SDS011;12945;42.648;23.370;2022-10-31T11:53:51;10.68;;;3.95;;
24873;SDS011;12945;42.648;23.370;2022-10-31T11:56:17;7.70;;;3.55;;
24873;SDS011;12945;42.648;23.370;2022-10-31T11:58:42;7.88;;;3.03;;
24873;SDS011;12945;42.648;23.370;2022-10-31T12:01:27;13.77;;;3.67;;
24873;SDS011;12945;42.648;23.370;2022-10-31T12:06:31;9.88;;;3.85;;
24873;SDS011;12945;42.648;23.370;2022-10-31T12:08:58;9.98;;;3.92;;
24873;SDS011;12945;42.648;23.370;2022-10-31T12:14:22;12.40;;;3.60;;
24873;SDS011;12945;42.648;23.370;2022-10-31T12:22:02;8.82;;;3.53;;
24873;SDS011;12945;42.648;23.370;2022-10-31T12:35:05;13.52;;;3.72;;
24873;SDS011;12945;42.648;23.370;2022-10-31T12:45:27;14.05;;;3.70;;
24873;SDS011;12945;42.648;23.370;2022-10-31T12:58:17;15.07;;;4.27;;
24873;SDS011;12945;42.648;23.370;2022-10-31T13:00:34;11.45;;;3.70;;
24873;SDS011;12945;42.648;23.370;2022-10-31T13:03:17;10.75;;;4.10;;
24873;SDS011;12945;42.648;23.370;2022-10-31T13:05:44;12.75;;;4.22;;
24873;SDS011;12945;42.648;23.370;2022-10-31T13:08:11;10.38;;;3.97;;
24873;SDS011;12945;42.648;23.370;2022-10-31T13:13:26;7.25;;;3.50;;
24873;SDS011;12945;42.648;23.370;2022-10-31T13:15:57;13.38;;;4.45;;
24873;SDS011;12945;42.648;23.370;2022-10-31T13:18:27;11.35;;;3.22;;
24873;SDS011;12945;42.648;23.370;2022-10-31T13:20:54;13.27;;;4.32;;
24873;SDS011;12945;42.648;23.370;2022-10-31T13:23:31;10.55;;;3.78;;
24873;SDS011;12945;42.648;23.370;2022-10-31T13:25:58;9.27;;;3.90;;
24873;SDS011;12945;42.648;23.370;2022-10-31T13:30:49;14.33;;;4.57;;
24873;SDS011;12945;42.648;23.370;2022-10-31T13:33:16;12.32;;;3.80;;
24873;SDS011;12945;42.648;23.370;2022-10-31T13:38:25;8.77;;;4.47;;
24873;SDS011;12945;42.648;23.370;2022-10-31T13:40:57;9.95;;;3.88;;
24873;SDS011;12945;42.648;23.370;2022-10-31T13:45:53;8.70;;;3.72;;
24873;SDS011;12945;42.648;23.370;2022-10-31T13:51:24;16.67;;;4.35;;
24873;SDS011;12945;42.648;23.370;2022-10-31T13:56:17;14.07;;;4.38;;
24873;SDS011;12945;42.648;23.370;2022-10-31T13:58:55;19.77;;;4.47;;
24873;SDS011;12945;42.648;23.370;2022-10-31T14:01:22;16.65;;;3.80;;
24873;SDS011;12945;42.648;23.370;2022-10-31T14:03:55;14.50;;;4.40;;
24873;SDS011;12945;42.648;23.370;2022-10-31T14:06:21;17.38;;;6.07;;
24873;SDS011;12945;42.648;23.370;2022-10-31T14:08:49;19.35;;;6.43;;
24873;SDS011;12945;42.648;23.370;2022-10-31T14:11:23;24.63;;;4.93;;
24873;SDS011;12945;42.648;23.370;2022-10-31T14:13:49;14.30;;;4.00;;
24873;SDS011;12945;42.648;23.370;2022-10-31T14:16:23;12.65;;;4.43;;
24873;SDS011;12945;42.648;23.370;2022-10-31T14:18:50;14.32;;;4.47;;
24873;SDS011;12945;42.648;23.370;2022-10-31T14:23:48;14.50;;;4.47;;
24873;SDS011;12945;42.648;23.370;2022-10-31T14:28:49;12.57;;;4.60;;
24873;SDS011;12945;42.648;23.370;2022-10-31T14:34:01;12.52;;;4.38;;
24873;SDS011;12945;42.648;23.370;2022-10-31T14:39:04;12.05;;;3.50;;
24873;SDS011;12945;42.648;23.370;2022-10-31T14:51:38;14.60;;;3.80;;
24873;SDS011;12945;42.648;23.370;2022-10-31T14:54:04;18.85;;;4.40;;
24873;SDS011;12945;42.648;23.370;2022-10-31T14:56:32;16.40;;;6.13;;
24873;SDS011;12945;42.648;23.370;2022-10-31T14:59:06;27.00;;;7.63;;
24873;SDS011;12945;42.648;23.370;2022-10-31T15:01:34;35.90;;;13.48;;
24873;SDS011;12945;42.648;23.370;2022-10-31T15:04:19;46.97;;;17.00;;
24873;SDS011;12945;42.648;23.370;2022-10-31T15:06:46;63.67;;;22.90;;
24873;SDS011;12945;42.648;23.370;2022-10-31T15:09:22;31.65;;;11.38;;
24873;SDS011;12945;42.648;23.370;2022-10-31T15:11:48;38.03;;;12.52;;
24873;SDS011;12945;42.648;23.370;2022-10-31T15:14:21;55.75;;;20.55;;
24873;SDS011;12945;42.648;23.370;2022-10-31T15:16:47;41.63;;;14.00;;
24873;SDS011;12945;42.648;23.370;2022-10-31T15:19:14;37.67;;;11.90;;
24873;SDS011;12945;42.648;23.370;2022-10-31T15:21:42;33.92;;;10.43;;
24873;SDS011;12945;42.648;23.370;2022-10-31T15:24:10;27.45;;;8.65;;
24873;SDS011;12945;42.648;23.370;2022-10-31T15:26:37;28.83;;;7.28;;
24873;SDS011;12945;42.648;23.370;2022-10-31T15:29:10;28.48;;;7.38;;
24873;SDS011;12945;42.648;23.370;2022-10-31T15:31:36;28.58;;;9.30;;
24873;SDS011;12945;42.648;23.370;2022-10-31T15:34:14;31.35;;;9.35;;
24873;SDS011;12945;42.648;23.370;2022-10-31T15:36:41;30.75;;;7.40;;
24873;SDS011;12945;42.648;23.370;2022-10-31T15:39:09;29.55;;;7.10;;
24873;SDS011;12945;42.648;23.370;2022-10-31T15:41:48;32.45;;;8.80;;
24873;SDS011;12945;42.648;23.370;2022-10-31T15:46:52;29.83;;;9.38;;
24873;SDS011;12945;42.648;23.370;2022-10-31T15:49:25;43.20;;;7.53;;
24873;SDS011;12945;42.648;23.370;2022-10-31T15:51:51;34.72;;;7.45;;
24873;SDS011;12945;42.648;23.370;2022-10-31T15:54:16;23.88;;;8.48;;
24873;SDS011;12945;42.648;23.370;2022-10-31T15:56:42;30.67;;;8.02;;
24873;SDS011;12945;42.648;23.370;2022-10-31T15:59:11;34.75;;;11.20;;
24873;SDS011;12945;42.648;23.370;2022-10-31T16:01:58;43.17;;;11.75;;
24873;SDS011;12945;42.648;23.370;2022-10-31T16:04:24;37.50;;;13.60;;
24873;SDS011;12945;42.648;23.370;2022-10-31T16:07:10;26.35;;;8.55;;
24873;SDS011;12945;42.648;23.370;2022-10-31T16:09:36;50.08;;;15.00;;
24873;SDS011;12945;42.648;23.370;2022-10-31T16:12:02;35.78;;;12.23;;
24873;SDS011;12945;42.648;23.370;2022-10-31T16:14:28;29.75;;;10.10;;
24873;SDS011;12945;42.648;23.370;2022-10-31T16:16:56;30.25;;;9.63;;
24873;SDS011;12945;42.648;23.370;2022-10-31T16:19:23;25.70;;;9.80;;
24873;SDS011;12945;42.648;23.370;2022-10-31T16:21:53;27.92;;;10.15;;
24873;SDS011;12945;42.648;23.370;2022-10-31T16:24:21;26.58;;;10.23;;
24873;SDS011;12945;42.648;23.370;2022-10-31T16:26:51;43.95;;;9.27;;
24873;SDS011;12945;42.648;23.370;2022-10-31T16:29:36;32.17;;;11.20;;
24873;SDS011;12945;42.648;23.370;2022-10-31T16:32:03;31.77;;;9.85;;
24873;SDS011;12945;42.648;23.370;2022-10-31T16:34:28;28.63;;;10.15;;
24873;SDS011;12945;42.648;23.370;2022-10-31T16:36:53;88.88;;;32.15;;
24873;SDS011;12945;42.648;23.370;2022-10-31T16:39:19;140.32;;;53.75;;
24873;SDS011;12945;42.648;23.370;2022-10-31T16:41:46;88.20;;;30.77;;
24873;SDS011;12945;42.648;23.370;2022-10-31T16:44:21;52.25;;;20.83;;
24873;SDS011;12945;42.648;23.370;2022-10-31T16:46:47;44.63;;;14.30;;
24873;SDS011;12945;42.648;23.370;2022-10-31T16:49:12;36.83;;;11.27;;
24873;SDS011;12945;42.648;23.370;2022-10-31T16:51:38;36.30;;;10.32;;
24873;SDS011;12945;42.648;23.370;2022-10-31T16:54:03;33.40;;;10.23;;